Time;durP1;ratioP1;P1;durP2;ratioP2;P2;SDS_P1;SDS_P2;PMS_P1;PMS_P2;Temp;Humidity;BMP_temperature;BMP_pressure;BME280_temperature;BME280_humidity;BME280_pressure;Samples;Min_cycle;Max_cycle;Signal;HPM_P1;HPM_P2
2021/12/22 00:00:52;;;;;;;42.60;23.88;;;-3.30;99.90;;;;;;5077816;28;20047;-65
2021/12/22 00:03:26;;;;;;;40.35;22.75;;;-3.30;99.90;;;;;;5077770;28;20080;-65
2021/12/22 00:06:03;;;;;;;44.40;26.45;;;-2.10;99.90;;;;;;5060230;28;20078;-65
2021/12/22 00:08:34;;;;;;;40.25;23.20;;;-3.30;99.90;;;;;;5077471;28;20052;-64
2021/12/22 00:11:10;;;;;;;36.22;23.73;;;-3.30;99.90;;;;;;5077939;28;20054;-66
2021/12/22 00:13:38;;;;;;;35.37;22.57;;;-3.30;99.90;;;;;;5091184;28;20036;-64
2021/12/22 00:16:07;;;;;;;38.10;24.13;;;-2.40;99.90;;;;;;5084785;28;20472;-65
2021/12/22 00:18:36;;;;;;;38.83;23.25;;;-3.40;99.90;;;;;;5087061;28;20076;-65
2021/12/22 00:21:05;;;;;;;41.22;23.65;;;-3.40;99.90;;;;;;5059670;28;20055;-65
2021/12/22 00:23:36;;;;;;;37.97;23.25;;;-3.50;99.90;;;;;;5077370;28;20041;-65
2021/12/22 00:26:02;;;;;;;35.83;22.90;;;-3.40;99.90;;;;;;5077439;28;20051;-65
2021/12/22 00:28:40;;;;;;;38.03;21.38;;;-3.50;99.90;;;;;;5077528;28;20044;-64
2021/12/22 00:31:18;;;;;;;37.65;23.30;;;-3.50;99.90;;;;;;5076732;28;20071;-63
2021/12/22 00:33:48;;;;;;;43.95;23.58;;;-3.50;99.90;;;;;;5077458;28;20052;-65
2021/12/22 00:36:21;;;;;;;40.25;22.55;;;-2.00;99.90;;;;;;5059442;28;20091;-65
2021/12/22 00:38:47;;;;;;;;;;;-3.50;99.90;;;;;;5059654;28;20049;-64
2021/12/22 00:41:22;;;;;;;36.30;22.55;;;-2.90;99.90;;;;;;5076869;28;19928;-64
2021/12/22 00:44:05;;;;;;;37.85;22.38;;;-3.50;99.90;;;;;;5090361;28;20083;-65
2021/12/22 00:46:33;;;;;;;41.00;23.70;;;-3.50;99.90;;;;;;5084063;28;20372;-65
2021/12/22 00:49:02;;;;;;;42.03;24.23;;;-3.50;99.90;;;;;;5076759;28;20093;-65
2021/12/22 00:51:33;;;;;;;37.72;23.33;;;-3.50;99.90;;;;;;5077093;28;20364;-65
2021/12/22 00:54:02;;;;;;;45.13;22.00;;;-3.50;99.90;;;;;;5076255;28;20476;-65
2021/12/22 00:56:27;;;;;;;37.67;22.90;;;-3.60;99.90;;;;;;5076835;28;20055;-64
2021/12/22 00:58:56;;;;;;;40.15;24.02;;;-3.60;99.90;;;;;;5076957;28;20041;-66
2021/12/22 01:01:28;;;;;;;42.83;24.85;;;-3.60;99.90;;;;;;5076749;28;20067;-65
2021/12/22 01:03:57;;;;;;;40.22;23.75;;;-3.60;99.90;;;;;;5076572;28;20131;-65
2021/12/22 01:06:39;;;;;;;41.65;24.65;;;-3.60;99.90;;;;;;5058722;28;20048;-64
2021/12/22 01:09:10;;;;;;;37.33;23.75;;;-3.60;99.90;;;;;;5076714;28;20056;-64
2021/12/22 01:11:51;;;;;;;40.55;24.02;;;-3.60;99.90;;;;;;5076819;28;20044;-64
2021/12/22 01:14:21;;;;;;;35.70;23.10;;;-3.60;99.90;;;;;;5076576;28;20044;-65
2021/12/22 01:16:49;;;;;;;35.05;22.35;;;-3.70;99.90;;;;;;5063917;28;20068;-64
2021/12/22 01:19:21;;;;;;;35.85;22.88;;;-3.70;99.90;;;;;;5075538;28;20128;-65
2021/12/22 01:22:00;;;;;;;45.72;24.13;;;-4.20;99.90;;;;;;5058940;28;20045;-65
2021/12/22 01:25:36;;;;;;;36.33;22.02;;;-3.70;99.90;;;;;;5076057;28;20040;-65
2021/12/22 01:27:40;;;;;;;36.97;22.05;;;-3.70;99.90;;;;;;5062062;28;20060;-66
2021/12/22 01:30:21;;;;;;;37.53;22.67;;;-3.70;99.90;;;;;;5076062;28;20379;-63
2021/12/22 01:32:50;;;;;;;39.67;23.88;;;-3.70;99.90;;;;;;5076025;28;20182;-65
2021/12/22 01:35:25;;;;;;;39.72;23.80;;;-3.80;99.90;;;;;;5075763;28;20060;-65
2021/12/22 01:37:51;;;;;;;37.17;22.55;;;-3.80;99.90;;;;;;5075719;28;20067;-64
2021/12/22 01:40:18;;;;;;;44.50;23.10;;;-3.80;99.90;;;;;;5041566;28;20468;-65
2021/12/22 01:42:50;;;;;;;35.88;21.73;;;-3.80;99.90;;;;;;5076062;28;20376;-64
2021/12/22 01:51:31;;;;;;;;;;;-3.90;99.90;;;;;;5076114;28;20184;-64
2021/12/22 01:54:14;;;;;;;42.28;22.52;;;-3.90;99.90;;;;;;5074885;28;20262;-63
2021/12/22 01:56:46;;;;;;;33.38;21.08;;;-3.90;99.90;;;;;;5074702;28;20049;-65
2021/12/22 01:59:20;;;;;;;38.67;22.10;;;-3.90;99.90;;;;;;5075413;28;20041;-65
2021/12/22 02:01:46;;;;;;;34.17;21.00;;;-3.10;99.90;;;;;;5075095;28;20494;-63
2021/12/22 02:04:38;;;;;;;36.60;21.35;;;-3.90;99.90;;;;;;5075649;28;20060;-65
2021/12/22 02:07:01;;;;;;;38.17;22.73;;;-3.90;99.90;;;;;;5074293;28;20052;-65
2021/12/22 02:09:55;;;;;;;32.17;21.20;;;-4.00;99.90;;;;;;5075131;28;20117;-65
2021/12/22 02:12:13;;;;;;;36.88;20.90;;;-4.00;99.90;;;;;;5175283;22;20099;-64
2021/12/22 02:14:43;;;;;;;40.65;21.23;;;-2.90;99.90;;;;;;5012960;28;20462;-64
2021/12/22 02:17:13;;;;;;;37.72;21.00;;;-4.00;99.90;;;;;;5022944;28;20147;-65
2021/12/22 02:19:39;;;;;;;36.55;20.33;;;-4.00;99.90;;;;;;4998468;28;20042;-65
2021/12/22 02:22:10;;;;;;;33.67;20.23;;;-4.00;99.90;;;;;;4999084;28;20157;-63
2021/12/22 02:24:47;;;;;;;37.78;21.00;;;-4.00;99.90;;;;;;5015404;28;20065;-65
2021/12/22 02:27:22;;;;;;;34.00;20.58;;;-4.00;99.90;;;;;;4998127;28;20053;-64
2021/12/22 02:29:57;;;;;;;34.75;20.52;;;-4.10;99.90;;;;;;5004443;28;20128;-65
2021/12/22 02:35:25;;;;;;;33.70;20.17;;;-4.10;99.90;;;;;;4998182;28;20061;-65
2021/12/22 02:37:53;;;;;;;33.83;20.98;;;-4.10;99.90;;;;;;4998182;28;20049;-65
2021/12/22 02:40:27;;;;;;;37.72;21.25;;;-4.00;99.90;;;;;;4997931;28;20074;-65
2021/12/22 02:43:03;;;;;;;31.73;19.67;;;-3.20;99.90;;;;;;4997860;28;20365;-65
2021/12/22 02:45:37;;;;;;;39.67;21.25;;;-4.20;99.90;;;;;;4997505;28;20057;-65
2021/12/22 02:48:06;;;;;;;39.40;21.20;;;-4.20;99.90;;;;;;5019258;28;20108;-65
2021/12/22 02:50:37;;;;;;;32.60;20.00;;;-4.20;99.90;;;;;;4996742;28;20061;-64
2021/12/22 02:53:11;;;;;;;37.47;21.33;;;-4.20;99.90;;;;;;4997406;28;20042;-65
2021/12/22 02:55:50;;;;;;;37.72;20.25;;;-4.20;99.90;;;;;;5015011;28;20072;-63
2021/12/22 02:58:32;;;;;;;33.20;20.88;;;-4.20;99.90;;;;;;4998000;28;20050;-65
2021/12/22 03:02:08;;;;;;;33.65;20.60;;;-4.20;99.90;;;;;;4997536;28;20069;-64
2021/12/22 03:06:30;;;;;;;33.95;21.10;;;-4.30;99.90;;;;;;4997299;28;20054;-65
2021/12/22 03:09:00;;;;;;;33.08;20.52;;;-4.20;99.90;;;;;;4997231;28;20057;-65
2021/12/22 03:11:28;;;;;;;34.67;20.50;;;-4.20;99.90;;;;;;5014811;28;20061;-63
2021/12/22 03:13:57;;;;;;;34.85;20.88;;;-4.20;99.90;;;;;;5011282;28;20068;-65
2021/12/22 03:16:25;;;;;;;37.40;22.02;;;-4.30;99.90;;;;;;5014645;28;20049;-64
2021/12/22 03:18:57;;;;;;;34.38;20.65;;;-4.30;99.90;;;;;;5014624;28;20407;-65
2021/12/22 03:21:42;;;;;;;36.38;20.17;;;-4.30;99.90;;;;;;5014023;28;20393;-63
2021/12/22 03:24:20;;;;;;;33.92;20.17;;;-4.30;99.90;;;;;;5014793;28;20056;-65
2021/12/22 03:26:49;;;;;;;30.13;19.48;;;-4.30;99.90;;;;;;5014713;28;20050;-63
2021/12/22 03:29:19;;;;;;;43.55;21.55;;;-3.10;99.90;;;;;;5014444;28;20063;-64
2021/12/22 03:31:53;;;;;;;32.78;19.75;;;-4.30;99.90;;;;;;5014611;28;20436;-63
2021/12/22 03:34:22;;;;;;;45.00;21.67;;;-3.80;99.90;;;;;;5014725;28;20058;-63
2021/12/22 03:36:51;;;;;;;36.00;20.15;;;-4.30;99.90;;;;;;5014669;28;20062;-63
2021/12/22 03:39:20;;;;;;;37.42;20.30;;;-4.30;99.90;;;;;;5014470;28;20525;-64
2021/12/22 03:41:47;;;;;;;36.88;21.02;;;-3.70;99.90;;;;;;5014299;28;20420;-64
2021/12/22 03:44:15;;;;;;;35.72;21.00;;;-4.40;99.90;;;;;;5014569;28;20046;-63
2021/12/22 03:46:44;;;;;;;36.13;20.33;;;-4.40;99.90;;;;;;5014643;28;20413;-63
2021/12/22 03:49:16;;;;;;;34.80;20.30;;;-4.40;99.90;;;;;;5014610;28;20049;-63
2021/12/22 03:51:55;;;;;;;33.90;19.35;;;-4.40;99.90;;;;;;5014122;28;20347;-65
2021/12/22 03:54:27;;;;;;;34.42;20.30;;;-4.10;99.90;;;;;;5013716;28;20045;-63
2021/12/22 03:56:52;;;;;;;33.22;19.80;;;-4.40;99.90;;;;;;5013170;28;20042;-65
2021/12/22 03:59:23;;;;;;;37.60;19.58;;;-4.40;99.90;;;;;;5014690;28;20446;-65
2021/12/22 04:01:49;;;;;;;32.92;19.60;;;-4.40;99.90;;;;;;5014076;28;20057;-64
2021/12/22 04:04:17;;;;;;;31.35;19.65;;;-4.40;99.90;;;;;;5013579;28;20054;-65
2021/12/22 04:06:45;;;;;;;37.78;20.38;;;-4.30;99.90;;;;;;5013268;28;20133;-64
2021/12/22 04:09:27;;;;;;;38.88;20.67;;;-4.40;99.90;;;;;;5013598;28;20061;-64
2021/12/22 04:11:53;;;;;;;38.45;20.10;;;-4.40;99.90;;;;;;5002237;28;20046;-63
2021/12/22 04:14:31;;;;;;;36.65;20.63;;;-4.40;99.90;;;;;;4996503;28;20054;-65
2021/12/22 04:17:01;;;;;;;39.97;20.95;;;-4.40;99.90;;;;;;4997527;28;20049;-65
2021/12/22 04:19:30;;;;;;;39.83;21.15;;;-4.40;99.90;;;;;;5000456;28;20053;-64
2021/12/22 04:21:58;;;;;;;38.63;20.08;;;-4.40;99.90;;;;;;5000776;28;20050;-63
2021/12/22 04:24:27;;;;;;;31.90;18.55;;;-4.40;99.90;;;;;;4983588;28;20124;-64
2021/12/22 04:26:52;;;;;;;36.13;20.35;;;-4.50;99.90;;;;;;5000162;28;20057;-63
2021/12/22 04:29:18;;;;;;;37.33;20.77;;;-4.50;99.90;;;;;;5000195;28;20054;-64
2021/12/22 04:31:46;;;;;;;35.10;20.45;;;-3.50;99.90;;;;;;5017668;28;20041;-63
2021/12/22 04:34:12;;;;;;;40.88;21.48;;;-4.40;99.90;;;;;;5017621;28;20361;-63
2021/12/22 04:36:41;;;;;;;43.70;20.15;;;-4.40;99.90;;;;;;5017583;28;20107;-63
2021/12/22 04:39:10;;;;;;;32.28;19.83;;;-4.50;99.90;;;;;;5017060;28;20053;-64
2021/12/22 04:41:36;;;;;;;45.78;21.77;;;-4.30;99.90;;;;;;5000064;28;20050;-63
2021/12/22 04:44:02;;;;;;;38.22;20.45;;;-4.50;99.90;;;;;;5017184;28;20052;-64
2021/12/22 04:46:34;;;;;;;35.55;19.80;;;-4.50;99.90;;;;;;5017152;28;20212;-63
2021/12/22 04:49:04;;;;;;;42.13;20.35;;;-4.40;99.90;;;;;;5017450;28;20049;-65
2021/12/22 04:51:34;;;;;;;43.53;20.50;;;-4.40;99.90;;;;;;5017079;28;20057;-65
2021/12/22 04:56:54;;;;;;;38.45;21.52;;;-4.10;99.90;;;;;;4999653;28;20147;-63
2021/12/22 04:59:20;;;;;;;35.08;21.52;;;-4.50;99.90;;;;;;4998799;28;20135;-64
2021/12/22 05:01:49;;;;;;;34.53;20.65;;;-4.50;99.90;;;;;;5016594;28;20042;-64
2021/12/22 05:04:15;;;;;;;38.30;21.38;;;-4.40;99.90;;;;;;4999290;28;20469;-65
2021/12/22 05:06:44;;;;;;;40.10;22.75;;;-4.40;99.90;;;;;;4999228;28;20107;-64
2021/12/22 05:09:22;;;;;;;37.83;21.92;;;-3.50;99.90;;;;;;5016607;28;20119;-64
2021/12/22 05:11:51;;;;;;;38.15;22.05;;;-3.50;99.90;;;;;;4999723;28;20041;-65
2021/12/22 05:14:23;;;;;;;41.33;22.15;;;-4.40;99.90;;;;;;5015260;28;20057;-65
2021/12/22 05:16:59;;;;;;;42.10;22.25;;;-4.40;99.90;;;;;;5007267;28;20049;-64
2021/12/22 05:19:28;;;;;;;40.63;22.48;;;-4.20;99.90;;;;;;5014583;28;20050;-64
2021/12/22 05:22:02;;;;;;;38.28;23.42;;;-4.40;99.90;;;;;;5016642;28;20452;-64
2021/12/22 05:24:28;;;;;;;38.13;22.40;;;-4.40;99.90;;;;;;5015490;28;20421;-62
2021/12/22 05:27:02;;;;;;;37.70;21.08;;;-4.40;99.90;;;;;;5016743;28;20116;-63
2021/12/22 05:29:30;;;;;;;39.38;20.55;;;-3.80;99.90;;;;;;5015241;28;20132;-64
2021/12/22 05:32:11;;;;;;;38.90;22.13;;;-4.40;99.90;;;;;;5015498;28;20042;-64
2021/12/22 05:34:40;;;;;;;36.00;21.40;;;-4.40;99.90;;;;;;5015156;28;20398;-65
2021/12/22 05:37:10;;;;;;;37.25;20.20;;;-4.40;99.90;;;;;;4997429;28;20081;-63
2021/12/22 05:39:39;;;;;;;38.95;21.35;;;-4.50;99.90;;;;;;5011903;28;20368;-65
2021/12/22 05:42:12;;;;;;;37.28;21.10;;;-4.20;99.90;;;;;;5000066;28;20133;-63
2021/12/22 05:44:42;;;;;;;34.92;20.13;;;-4.50;99.90;;;;;;5005819;28;20084;-65
2021/12/22 05:47:22;;;;;;;37.47;21.35;;;-4.50;99.90;;;;;;4996604;28;20116;-64
2021/12/22 05:49:57;;;;;;;38.28;20.73;;;-4.50;99.90;;;;;;4995578;28;20402;-64
2021/12/22 05:52:25;;;;;;;41.80;21.42;;;-4.50;99.90;;;;;;4994820;28;20061;-64
2021/12/22 05:54:50;;;;;;;37.10;22.77;;;-4.50;99.90;;;;;;4994920;28;20134;-63
2021/12/22 05:57:16;;;;;;;40.10;21.63;;;-4.50;99.90;;;;;;5003466;28;20148;-65
2021/12/22 05:59:48;;;;;;;40.08;21.60;;;-4.50;99.90;;;;;;5014962;28;20448;-66
2021/12/22 06:02:19;;;;;;;40.22;22.13;;;-4.50;99.90;;;;;;5018474;28;20050;-66
2021/12/22 06:04:47;;;;;;;42.58;21.83;;;-4.60;99.90;;;;;;4998731;28;20049;-65
2021/12/22 06:07:13;;;;;;;43.95;21.27;;;-4.50;99.90;;;;;;5014500;28;20096;-65
2021/12/22 06:09:41;;;;;;;38.55;20.70;;;-4.50;99.90;;;;;;5014912;28;20050;-65
2021/12/22 06:12:17;;;;;;;;;;;;;;;;;;;;;
2021/12/22 06:14:43;;;;;;;38.33;21.20;;;-4.50;99.90;;;;;;5029517;28;20092;-64
2021/12/22 06:17:08;;;;;;;37.88;21.25;;;-3.70;99.90;;;;;;5034365;28;20041;-63
2021/12/22 06:19:37;;;;;;;39.63;20.02;;;-4.50;99.90;;;;;;5022299;28;20052;-63
2021/12/22 06:22:03;;;;;;;42.45;21.33;;;-4.50;99.90;;;;;;5010574;28;20046;-65
2021/12/22 06:24:34;;;;;;;38.78;20.17;;;-4.50;99.90;;;;;;5014453;28;20045;-64
2021/12/22 06:27:03;;;;;;;44.47;21.05;;;-4.50;99.90;;;;;;5013917;28;20056;-63
2021/12/22 06:29:31;;;;;;;39.50;21.52;;;-4.50;99.90;;;;;;5012560;28;20199;-64
2021/12/22 06:32:00;;;;;;;42.33;21.67;;;-4.50;99.90;;;;;;5011304;28;20146;-65
2021/12/22 06:34:31;;;;;;;39.90;20.80;;;-4.40;99.90;;;;;;5013074;28;20049;-65
2021/12/22 06:36:56;;;;;;;40.15;22.17;;;-4.50;99.90;;;;;;5011979;28;20483;-65
2021/12/22 06:39:22;;;;;;;40.22;21.10;;;-4.50;99.90;;;;;;5013245;28;20041;-64
2021/12/22 06:41:48;;;;;;;41.97;22.30;;;-4.50;99.90;;;;;;5013077;28;20046;-64
2021/12/22 06:44:19;;;;;;;37.63;21.30;;;-4.40;99.90;;;;;;5012895;28;20045;-65
2021/12/22 06:46:45;;;;;;;41.72;22.25;;;-4.40;99.90;;;;;;5024889;28;20046;-65
2021/12/22 06:49:11;;;;;;;39.95;21.42;;;-4.40;99.90;;;;;;5009606;28;20048;-64
2021/12/22 06:51:37;;;;;;;40.50;21.70;;;-4.40;99.90;;;;;;5015402;28;20408;-64
2021/12/22 06:54:03;;;;;;;43.60;21.75;;;-4.50;99.90;;;;;;5011612;28;20049;-63
2021/12/22 06:56:29;;;;;;;41.83;22.77;;;-4.50;99.90;;;;;;5014108;28;20125;-64
2021/12/22 06:58:57;;;;;;;44.22;22.08;;;-4.50;99.90;;;;;;5014809;28;20100;-64
2021/12/22 07:01:23;;;;;;;45.47;21.73;;;-4.50;99.90;;;;;;5013397;28;20054;-64
2021/12/22 07:03:49;;;;;;;40.95;21.45;;;-4.50;99.90;;;;;;5020710;28;20424;-62
2021/12/22 07:06:15;;;;;;;39.00;20.33;;;-4.50;99.90;;;;;;5014574;28;20120;-64
2021/12/22 07:08:40;;;;;;;39.88;20.50;;;-4.60;99.90;;;;;;5020175;28;20673;-63
2021/12/22 07:11:06;;;;;;;41.60;21.50;;;-4.60;99.90;;;;;;5015977;28;20041;-65
2021/12/22 07:13:33;;;;;;;43.08;23.40;;;-4.60;99.90;;;;;;5021606;28;20495;-65
2021/12/22 07:15:58;;;;;;;39.10;23.30;;;-4.60;99.90;;;;;;5013200;28;20081;-66
2021/12/22 07:18:24;;;;;;;44.65;22.83;;;-4.60;99.90;;;;;;5014858;28;20131;-65
2021/12/22 07:20:50;;;;;;;52.67;22.48;;;-4.60;99.90;;;;;;5013340;28;20058;-66
2021/12/22 07:23:16;;;;;;;43.33;23.10;;;-4.60;99.90;;;;;;5020122;28;20048;-64
2021/12/22 07:25:42;;;;;;;41.10;23.25;;;-4.50;99.90;;;;;;5002833;28;20054;-64
2021/12/22 07:28:10;;;;;;;41.38;21.88;;;-4.60;99.90;;;;;;5013333;28;20060;-64
2021/12/22 07:30:36;;;;;;;44.10;23.35;;;-4.60;99.90;;;;;;5007211;28;20491;-65
2021/12/22 07:33:03;;;;;;;46.40;23.65;;;-4.60;99.90;;;;;;5013748;28;20053;-65
2021/12/22 07:35:50;;;;;;;47.92;24.30;;;-4.60;99.90;;;;;;5014463;28;20108;-66
2021/12/22 07:38:30;;;;;;;47.67;22.67;;;-4.60;99.90;;;;;;5006712;28;20128;-65
2021/12/22 07:40:57;;;;;;;40.20;20.58;;;-4.60;99.90;;;;;;5013198;28;20141;-65
2021/12/22 07:43:24;;;;;;;40.72;22.05;;;-4.50;99.90;;;;;;5014237;28;20045;-64
2021/12/22 07:45:50;;;;;;;37.88;22.45;;;-4.60;99.90;;;;;;5013734;28;20112;-64
2021/12/22 07:48:16;;;;;;;42.00;20.75;;;-4.60;99.90;;;;;;5016902;28;20089;-64
2021/12/22 07:50:41;;;;;;;44.33;24.20;;;-4.60;99.90;;;;;;5014076;28;20046;-64
2021/12/22 07:53:07;;;;;;;36.85;22.20;;;-4.50;99.90;;;;;;5015783;28;20041;-63
2021/12/22 07:55:33;;;;;;;43.83;24.13;;;-4.50;99.90;;;;;;5016032;28;20060;-66
2021/12/22 07:57:59;;;;;;;51.92;28.50;;;-4.50;99.90;;;;;;5016042;28;20046;-66
2021/12/22 08:00:25;;;;;;;42.85;24.52;;;-4.50;99.90;;;;;;5017669;28;20065;-64
2021/12/22 08:02:50;;;;;;;43.95;24.83;;;-4.50;99.90;;;;;;5017703;28;20049;-64
2021/12/22 08:05:16;;;;;;;41.00;23.60;;;-4.30;99.90;;;;;;5016453;28;20050;-65
2021/12/22 08:07:41;;;;;;;40.65;21.83;;;-4.40;99.90;;;;;;5016903;28;20064;-65
2021/12/22 08:10:08;;;;;;;40.40;22.33;;;-4.40;99.90;;;;;;5016044;28;20046;-66
2021/12/22 08:12:34;;;;;;;40.17;22.77;;;-4.40;99.90;;;;;;5015274;28;20058;-67
2021/12/22 08:15:01;;;;;;;39.15;23.08;;;-4.30;99.90;;;;;;5015916;28;20383;-65
2021/12/22 08:17:27;;;;;;;38.63;21.70;;;-4.30;99.90;;;;;;5016815;28;20052;-64
2021/12/22 08:19:54;;;;;;;47.22;22.20;;;-4.30;99.90;;;;;;5017455;28;20133;-67
2021/12/22 08:22:19;;;;;;;39.10;22.55;;;-4.20;99.90;;;;;;5016476;28;20377;-64
2021/12/22 08:24:45;;;;;;;40.28;22.70;;;-4.10;99.90;;;;;;5020760;28;20120;-65
2021/12/22 08:27:11;;;;;;;50.38;23.10;;;-4.10;99.90;;;;;;5023332;28;20396;-62
2021/12/22 08:29:42;;;;;;;40.75;21.60;;;-4.00;99.90;;;;;;5016235;28;20437;-65
2021/12/22 08:32:09;;;;;;;41.50;22.73;;;-4.00;99.90;;;;;;5021850;28;20073;-66
2021/12/22 08:34:38;;;;;;;43.50;22.45;;;-3.10;99.90;;;;;;5017121;28;20096;-67
2021/12/22 08:39:48;;;;;;;42.00;22.42;;;-3.90;99.90;;;;;;5005382;28;20464;-64
2021/12/22 08:42:14;;;;;;;43.28;20.95;;;-3.80;99.90;;;;;;4999482;28;20069;-66
2021/12/22 08:44:40;;;;;;;43.10;22.27;;;-3.80;99.90;;;;;;4999952;28;20076;-66
2021/12/22 08:47:07;;;;;;;42.20;22.05;;;-3.70;99.90;;;;;;5017870;28;20094;-66
2021/12/22 08:49:33;;;;;;;47.22;22.65;;;-3.60;99.90;;;;;;5015575;28;20050;-68
2021/12/22 08:51:58;;;;;;;37.88;20.20;;;-3.60;99.90;;;;;;5016791;28;20048;-67
2021/12/22 08:54:24;;;;;;;44.47;22.50;;;-3.50;99.90;;;;;;5016825;28;20492;-64
2021/12/22 08:56:50;;;;;;;42.20;21.02;;;-3.50;99.90;;;;;;5009709;28;20061;-65
2021/12/22 08:59:16;;;;;;;45.17;21.92;;;-3.40;99.90;;;;;;5015307;28;20088;-64
2021/12/22 09:01:42;;;;;;;40.30;21.42;;;-3.40;99.90;;;;;;5016083;28;20050;-67
2021/12/22 09:04:08;;;;;;;42.67;21.02;;;-3.30;99.90;;;;;;5015157;28;20115;-65
2021/12/22 09:06:34;;;;;;;44.08;21.25;;;-3.30;99.90;;;;;;5013241;28;20042;-65
2021/12/22 09:09:00;;;;;;;45.03;20.23;;;-3.20;99.90;;;;;;5016113;28;20057;-68
2021/12/22 09:11:26;;;;;;;42.10;21.05;;;-3.20;99.90;;;;;;5014984;28;20450;-66
2021/12/22 09:13:51;;;;;;;41.80;19.98;;;-3.10;99.90;;;;;;4997905;28;20108;-66
2021/12/22 09:16:17;;;;;;;40.30;22.63;;;-3.10;99.90;;;;;;5003827;28;20557;-65
2021/12/22 09:18:43;;;;;;;39.40;21.35;;;-3.10;99.90;;;;;;5005067;28;20474;-66
2021/12/22 09:21:11;;;;;;;38.95;19.70;;;-3.00;99.90;;;;;;5009385;28;20065;-65
2021/12/22 09:23:37;;;;;;;40.28;20.70;;;-3.00;99.90;;;;;;5016431;28;20041;-65
2021/12/22 09:26:03;;;;;;;43.85;21.33;;;-3.00;99.90;;;;;;5015779;28;20042;-66
2021/12/22 09:28:29;;;;;;;39.10;19.45;;;-2.90;99.90;;;;;;5015401;28;20049;-66
2021/12/22 09:30:55;;;;;;;39.60;20.45;;;-2.90;99.90;;;;;;5007627;28;20466;-65
2021/12/22 09:33:23;;;;;;;37.72;20.27;;;-2.30;99.90;;;;;;5015882;28;20121;-67
2021/12/22 09:35:50;;;;;;;40.13;21.73;;;-2.80;99.90;;;;;;5015835;28;20045;-65
2021/12/22 09:38:16;;;;;;;36.83;20.20;;;-2.80;99.90;;;;;;5015895;28;20117;-66
2021/12/22 09:40:42;;;;;;;38.08;21.63;;;-2.70;99.90;;;;;;4998318;28;20060;-68
2021/12/22 09:43:08;;;;;;;44.10;19.60;;;-2.70;99.90;;;;;;5014448;28;20061;-66
2021/12/22 09:45:36;;;;;;;38.58;20.92;;;-2.60;99.90;;;;;;5015616;28;20049;-65
2021/12/22 09:53:05;;;;;;;40.90;20.98;;;-2.40;99.90;;;;;;5015155;28;20045;-66
2021/12/22 09:55:34;;;;;;;40.88;20.83;;;-2.40;99.90;;;;;;5015038;28;20378;-67
2021/12/22 09:58:01;;;;;;;41.90;22.00;;;-2.30;99.90;;;;;;5018500;28;20037;-68
2021/12/22 10:00:27;;;;;;;41.42;20.38;;;-2.20;99.90;;;;;;4998333;28;20401;-68
2021/12/22 10:02:52;;;;;;;37.72;19.90;;;-2.20;99.90;;;;;;5015242;28;20128;-66
2021/12/22 10:05:18;;;;;;;36.28;20.92;;;-2.20;99.90;;;;;;4998828;28;20188;-65
2021/12/22 10:07:44;;;;;;;32.97;18.70;;;-2.10;99.90;;;;;;5015845;28;20049;-65
2021/12/22 10:10:11;;;;;;;36.47;20.27;;;-2.10;99.90;;;;;;5015351;28;20473;-65
2021/12/22 10:12:38;;;;;;;38.63;19.90;;;-2.10;99.90;;;;;;5014385;28;20089;-67
2021/12/22 10:15:07;;;;;;;36.65;19.38;;;-2.10;99.90;;;;;;4996967;28;20108;-66
2021/12/22 10:17:37;;;;;;;40.75;20.45;;;-2.00;99.90;;;;;;5014304;28;20049;-66
2021/12/22 10:20:17;;;;;;;37.38;21.08;;;-2.00;99.90;;;;;;5014288;28;20053;-67
2021/12/22 10:22:45;;;;;;;33.13;20.25;;;-1.90;99.90;;;;;;5014693;28;20087;-68
2021/12/22 10:25:18;;;;;;;38.00;19.55;;;-1.90;99.90;;;;;;5015041;28;20042;-66
2021/12/22 10:27:55;;;;;;;32.53;18.67;;;-1.60;99.90;;;;;;5014700;28;20473;-67
2021/12/22 10:30:29;;;;;;;33.80;19.63;;;-1.80;99.90;;;;;;5015061;28;20381;-66
2021/12/22 10:33:29;;;;;;;37.92;21.05;;;-1.80;99.90;;;;;;4997226;28;20089;-66
2021/12/22 10:35:57;;;;;;;45.03;26.23;;;-1.70;99.90;;;;;;5014990;28;20100;-65
2021/12/22 10:38:29;;;;;;;65.95;40.08;;;-1.70;99.90;;;;;;5014922;28;20089;-66
2021/12/22 10:41:02;;;;;;;45.55;25.77;;;-1.70;99.90;;;;;;5014993;28;20404;-67
2021/12/22 10:43:32;;;;;;;38.95;25.42;;;-1.60;99.90;;;;;;5013028;28;20068;-67
2021/12/22 10:46:01;;;;;;;38.22;23.48;;;-1.60;99.90;;;;;;5014790;28;20571;-68
2021/12/22 10:51:20;;;;;;;32.25;19.50;;;-1.40;99.90;;;;;;5013647;28;20454;-66
2021/12/22 10:53:50;;;;;;;31.05;18.60;;;-1.40;99.90;;;;;;5013397;28;20049;-67
2021/12/22 10:56:28;;;;;;;35.10;19.30;;;-1.30;99.90;;;;;;5014757;28;20420;-66
2021/12/22 10:59:01;;;;;;;33.03;18.85;;;-1.30;99.90;;;;;;5013025;28;20128;-67
2021/12/22 11:01:27;;;;;;;37.50;19.35;;;-1.30;99.90;;;;;;5014529;28;20369;-66
2021/12/22 11:04:01;;;;;;;37.50;19.42;;;-1.20;99.90;;;;;;5014123;28;20041;-68
2021/12/22 11:06:30;;;;;;;34.63;19.45;;;-1.20;99.90;;;;;;5013106;28;20066;-68
2021/12/22 11:09:13;;;;;;;31.70;18.42;;;-1.20;99.90;;;;;;5013374;28;20053;-68
2021/12/22 11:11:50;;;;;;;30.30;17.93;;;-1.10;99.90;;;;;;5014626;28;20143;-66
2021/12/22 11:14:19;;;;;;;31.85;18.17;;;-1.10;99.90;;;;;;5009496;28;20042;-67
2021/12/22 11:16:50;;;;;;;35.38;19.30;;;-1.10;99.90;;;;;;4996527;28;20051;-67
2021/12/22 11:19:17;;;;;;;28.33;17.42;;;-1.00;99.90;;;;;;4995257;28;20365;-66
2021/12/22 11:22:01;;;;;;;30.42;17.83;;;-1.00;99.90;;;;;;4994908;28;20047;-66
2021/12/22 11:24:28;;;;;;;29.45;17.80;;;-1.00;99.90;;;;;;5010905;28;20487;-66
2021/12/22 11:26:54;;;;;;;31.83;18.08;;;-1.00;99.90;;;;;;5017011;28;20133;-67
2021/12/22 11:29:21;;;;;;;30.27;17.58;;;-1.00;99.90;;;;;;5016556;28;20077;-67
2021/12/22 11:31:47;;;;;;;30.85;17.75;;;-0.90;99.90;;;;;;5017189;28;20615;-66
2021/12/22 11:34:16;;;;;;;33.72;20.42;;;-0.90;99.90;;;;;;5017870;28;20061;-66
2021/12/22 11:36:43;;;;;;;33.70;20.80;;;-0.90;99.90;;;;;;5017784;28;20042;-66
2021/12/22 11:39:09;;;;;;;34.95;20.85;;;-0.90;99.90;;;;;;5017039;28;20092;-65
2021/12/22 11:41:43;;;;;;;35.55;19.73;;;-0.90;99.90;;;;;;5015375;28;20092;-66
2021/12/22 11:44:10;;;;;;;27.65;18.45;;;-0.90;99.90;;;;;;5016234;28;20058;-67
2021/12/22 11:46:37;;;;;;;29.00;18.45;;;-0.80;99.90;;;;;;5017261;28;20046;-66
2021/12/22 11:49:03;;;;;;;31.77;19.10;;;-0.80;99.90;;;;;;5017579;28;20045;-67
2021/12/22 11:51:34;;;;;;;32.28;18.92;;;-0.50;99.90;;;;;;5017659;28;20046;-65
2021/12/22 11:54:08;;;;;;;26.90;16.88;;;-0.80;99.90;;;;;;5017434;28;20132;-67
2021/12/22 11:56:49;;;;;;;31.20;17.52;;;-0.80;99.90;;;;;;5014753;28;20342;-66
2021/12/22 11:59:32;;;;;;;27.08;16.85;;;-0.80;99.90;;;;;;5023134;28;20050;-68
2021/12/22 12:02:17;;;;;;;31.35;18.23;;;-0.70;99.90;;;;;;5015874;28;20050;-68
2021/12/22 12:04:42;;;;;;;27.95;18.60;;;-0.70;99.90;;;;;;5017223;28;20568;-66
2021/12/22 12:07:08;;;;;;;27.35;17.88;;;-0.70;99.90;;;;;;5033905;28;20064;-66
2021/12/22 12:09:42;;;;;;;30.15;17.00;;;-0.80;99.90;;;;;;5037604;28;20045;-67
2021/12/22 12:13:00;;;;;;;28.83;17.52;;;-0.70;99.90;;;;;;5037640;28;20058;-67
2021/12/22 12:22:08;;;;;;;29.52;17.75;;;-0.70;99.90;;;;;;5000495;28;20052;-67
2021/12/22 12:24:46;;;;;;;32.65;17.40;;;-0.70;99.90;;;;;;5011314;28;20057;-68
2021/12/22 12:27:35;;;;;;;27.38;17.45;;;-0.70;99.90;;;;;;5015934;28;20096;-67
2021/12/22 12:30:20;;;;;;;30.50;18.77;;;-0.70;99.90;;;;;;5017528;28;20042;-68
2021/12/22 12:32:46;;;;;;;32.30;17.98;;;-0.70;99.90;;;;;;5016578;28;20111;-67
2021/12/22 12:35:22;;;;;;;30.95;19.42;;;-0.70;99.90;;;;;;5016939;28;20049;-67
2021/12/22 12:38:22;;;;;;;30.08;19.13;;;-0.70;99.90;;;;;;5015977;28;20054;-67
2021/12/22 12:43:56;;;;;;;40.08;24.58;;;-0.60;99.90;;;;;;5016239;28;20061;-67
2021/12/22 12:46:25;;;;;;;28.88;18.98;;;-0.60;99.90;;;;;;5009408;28;20073;-66
2021/12/22 12:48:56;;;;;;;31.67;18.73;;;-0.60;99.90;;;;;;5016916;28;20049;-66
2021/12/22 12:51:33;;;;;;;29.77;18.15;;;-0.60;99.90;;;;;;5015135;28;20050;-66
2021/12/22 12:54:01;;;;;;;30.40;18.88;;;-0.60;99.90;;;;;;5021884;28;20361;-65
2021/12/22 12:56:54;;;;;;;30.10;17.90;;;-0.60;99.90;;;;;;5016549;28;20050;-67
2021/12/22 12:59:26;;;;;;;29.33;17.50;;;-0.50;99.90;;;;;;4992872;28;20062;-65
2021/12/22 13:01:52;;;;;;;26.20;17.23;;;-0.60;99.90;;;;;;4999580;28;20116;-65
2021/12/22 13:04:28;;;;;;;28.05;16.65;;;-0.50;99.90;;;;;;5015722;28;20057;-66
2021/12/22 13:07:00;;;;;;;26.90;17.48;;;-0.50;99.90;;;;;;5014795;28;20462;-66
2021/12/22 13:09:28;;;;;;;27.85;17.08;;;-0.60;99.90;;;;;;5016690;28;20050;-66
2021/12/22 13:11:57;;;;;;;28.92;17.77;;;-0.50;99.90;;;;;;5014911;28;20133;-65
2021/12/22 13:17:15;;;;;;;28.95;16.83;;;-0.60;99.90;;;;;;4996816;28;20124;-64
2021/12/22 13:19:47;;;;;;;28.85;17.58;;;-0.60;99.90;;;;;;4987624;28;20051;-66
2021/12/22 13:22:27;;;;;;;30.55;17.80;;;-0.60;99.90;;;;;;4976379;28;20146;-65